Main page
METAR-TAF:

METAR-TAF

Airports :

Owatonna Degner Regional Airport

Owatonna, Minnesota, United States

latitude: 44-07N, longitude: 093-15W, elevation: 1148 ft

Current weather observation

The report was made 36 minutes ago, at 19:53 UTC
Wind 5 mph from the South
Temperature 70°F
Humidity 33%
Pressure 30.01 in. Hg
Visibility: 10 miles
Scattered clouds at a height of 7000 ft
Scattered clouds at a height of 7500 ft
Scattered clouds at a height of 10000 ft

METAR: KOWA 191953Z AUTO 17004KT 10SM SCT070 SCT075 SCT100 21/04 A3001 RMK AO2

Time: 15:29 (20:29 UTC)


TAF: missing

Weather observations and forecasts of more than 4000 airports (METAR and TAF reports).

The available stations are represented by yellow and red dots on the map.

Hover mouse over dot to see the name of the station.

Then click to see weather observations and forecasts.

To change the map : click on the green buttons with a black cross to zoom in, on the green button with a dash to zoom out, or on the green arrows for adjacent maps.


METAR-TAF: